Terminal Aerodrome Forecast
Issued by NWS

Home | Current Version | Previous Version | Text Only | Print | Product List | Glossary On
Versions: 1 2 3 4 5 6 7 8 9 10 11 12 13 14
000
FTUS43 KICT 271128
TAFSLN
TAF
KSLN 271128Z 2712/2812 09006KT P6SM OVC100
      TEMPO 2717/2721 5SM -SN OVC030
     FM272100 13010KT P6SM OVC030=

USA.gov is the U.S. government's official web portal to all federal, state and local government web resources and services.